createdAt,value
2019-02-17T00:00:35.438Z,7.6
2019-02-17T00:01:44.690Z,7.6
2019-02-17T00:02:53.936Z,7.6
2019-02-17T00:04:03.247Z,7.6
2019-02-17T00:05:12.517Z,7.6
2019-02-17T00:06:21.815Z,7.6
2019-02-17T00:07:31.096Z,7.6
2019-02-17T00:08:40.412Z,7.6
2019-02-17T00:09:49.680Z,7.6
2019-02-17T00:10:58.983Z,7.5
2019-02-17T00:12:08.265Z,7.5
2019-02-17T00:13:17.575Z,7.4
2019-02-17T00:14:26.854Z,7.5
2019-02-17T00:15:36.186Z,7.4
2019-02-17T00:16:45.624Z,7.4
2019-02-17T00:17:54.833Z,7.3
2019-02-17T00:19:04.034Z,7.3
2019-02-17T00:20:13.346Z,7.3
2019-02-17T00:21:22.611Z,7.2
2019-02-17T00:22:31.913Z,7.1
2019-02-17T00:23:41.413Z,7.2
2019-02-17T00:24:50.487Z,7.1
2019-02-17T00:25:59.769Z,7.1
2019-02-17T00:27:09.066Z,7
2019-02-17T00:28:18.372Z,7
2019-02-17T00:29:27.637Z,7
2019-02-17T00:30:36.947Z,6.9
2019-02-17T00:31:46.323Z,6.9
2019-02-17T00:32:55.539Z,6.9
2019-02-17T00:34:04.794Z,6.9
2019-02-17T00:35:14.087Z,6.9
2019-02-17T00:36:23.375Z,6.9
2019-02-17T00:37:32.671Z,6.8
2019-02-17T00:38:42.059Z,6.8
2019-02-17T00:39:51.229Z,6.8
2019-02-17T00:41:00.532Z,6.8
2019-02-17T00:42:09.833Z,6.7
2019-02-17T00:43:19.093Z,6.7
2019-02-17T00:44:28.367Z,6.7
2019-02-17T00:45:37.650Z,6.7
2019-02-17T00:46:46.922Z,6.7
2019-02-17T00:47:56.244Z,6.7
2019-02-17T00:49:05.531Z,6.6
2019-02-17T00:50:14.787Z,6.6
2019-02-17T00:51:24.120Z,6.6
2019-02-17T00:52:33.349Z,6.6
2019-02-17T00:53:42.614Z,6.6
2019-02-17T00:54:51.889Z,6.6
2019-02-17T00:56:01.196Z,6.6
2019-02-17T00:57:10.585Z,6.6
2019-02-17T00:58:19.741Z,6.6
2019-02-17T00:59:29.012Z,6.5
2019-02-17T01:00:38.271Z,6.5
2019-02-17T01:01:47.646Z,6.5
2019-02-17T01:02:56.819Z,6.5
2019-02-17T01:04:06.099Z,6.5
2019-02-17T01:05:15.374Z,6.5
2019-02-17T01:06:24.647Z,6.4
2019-02-17T01:07:33.922Z,6.4
2019-02-17T01:08:43.191Z,6.4
2019-02-17T01:09:52.474Z,6.4
2019-02-17T01:11:01.738Z,6.4
2019-02-17T01:12:11.050Z,6.4
2019-02-17T01:13:20.280Z,6.3
2019-02-17T01:14:29.691Z,6.4
2019-02-17T01:15:38.818Z,6.4
2019-02-17T01:16:48.107Z,6.4
2019-02-17T01:17:57.362Z,6.3
2019-02-17T01:19:06.675Z,6.3
2019-02-17T01:20:15.892Z,6.3
2019-02-17T01:21:25.160Z,6.2
2019-02-17T01:22:34.439Z,6.2
2019-02-17T01:23:43.695Z,6.2
2019-02-17T01:24:53.023Z,6.2
2019-02-17T01:26:02.289Z,6.2
2019-02-17T01:27:11.500Z,6.2
2019-02-17T01:28:20.771Z,6.2
2019-02-17T01:29:30.051Z,6.1
2019-02-17T01:30:39.301Z,6.1
2019-02-17T01:31:48.625Z,6.1
2019-02-17T01:32:57.861Z,6
2019-02-17T01:34:07.104Z,6.1
2019-02-17T01:35:16.401Z,6
2019-02-17T01:36:25.627Z,6
2019-02-17T01:37:34.885Z,6
2019-02-17T01:38:44.145Z,6
2019-02-17T01:39:53.412Z,6
2019-02-17T01:41:02.689Z,5.9
2019-02-17T01:42:11.949Z,5.8
2019-02-17T01:43:21.188Z,5.9
2019-02-17T01:44:30.463Z,5.8
2019-02-17T01:45:39.724Z,5.9
2019-02-17T01:46:49.020Z,5.8
2019-02-17T01:47:58.256Z,5.8
2019-02-17T01:49:07.503Z,5.7
2019-02-17T01:50:16.797Z,5.6
2019-02-17T01:51:26.028Z,5.7
2019-02-17T01:52:35.277Z,5.7
2019-02-17T01:53:44.523Z,5.6
2019-02-17T01:54:53.795Z,5.6
2019-02-17T01:56:03.103Z,5.6
2019-02-17T01:57:12.325Z,5.5
2019-02-17T01:58:21.559Z,5.5
2019-02-17T01:59:31.068Z,5.5
2019-02-17T02:00:40.116Z,5.5
2019-02-17T02:01:49.330Z,5.5
2019-02-17T02:02:58.590Z,5.4
2019-02-17T02:04:07.842Z,5.4
2019-02-17T02:05:17.086Z,5.5
2019-02-17T02:06:26.352Z,5.5
2019-02-17T02:07:35.621Z,5.4
2019-02-17T02:08:44.847Z,5.4
2019-02-17T02:09:54.142Z,5.4
2019-02-17T02:11:03.374Z,5.4
2019-02-17T02:12:12.630Z,5.4
2019-02-17T02:13:21.855Z,5.4
2019-02-17T02:14:31.176Z,5.4
2019-02-17T02:15:40.351Z,5.4
2019-02-17T02:16:49.590Z,5.4
2019-02-17T02:17:58.898Z,5.4
2019-02-17T02:19:08.118Z,5.3
2019-02-17T02:20:17.395Z,5.3
2019-02-17T02:21:26.615Z,5.3
2019-02-17T02:22:35.894Z,5.4
2019-02-17T02:23:45.091Z,5.4
2019-02-17T02:24:54.345Z,5.4
2019-02-17T02:26:03.591Z,5.4
2019-02-17T02:27:12.835Z,5.4
2019-02-17T02:28:22.150Z,5.4
2019-02-17T02:29:40.325Z,5.4
2019-02-17T02:30:40.575Z,5.4
2019-02-17T02:31:49.947Z,5.4
2019-02-17T02:32:59.097Z,5.4
2019-02-17T02:34:08.310Z,5.3
2019-02-17T02:35:17.623Z,5.3
2019-02-17T02:36:26.934Z,5.4
2019-02-17T02:37:36.127Z,5.4
2019-02-17T02:38:45.291Z,5.4
2019-02-17T02:39:54.545Z,5.4
2019-02-17T02:41:03.771Z,5.2
2019-02-17T02:42:13.034Z,5.2
2019-02-17T02:43:22.263Z,5.2
2019-02-17T02:44:31.522Z,5.1
2019-02-17T02:45:40.758Z,5.1
2019-02-17T02:46:50.003Z,5.1
2019-02-17T02:47:59.257Z,5
2019-02-17T02:49:08.496Z,5
2019-02-17T02:50:17.757Z,5
2019-02-17T02:51:26.952Z,5
2019-02-17T02:52:36.202Z,5.1
2019-02-17T02:53:45.451Z,5.1
2019-02-17T02:54:54.685Z,5.1
2019-02-17T02:56:03.903Z,5.1
2019-02-17T02:57:13.141Z,5.1
2019-02-17T02:58:22.376Z,5.1
2019-02-17T02:59:31.623Z,5
2019-02-17T03:00:40.893Z,5
2019-02-17T03:01:50.102Z,5
2019-02-17T03:02:59.365Z,5
2019-02-17T03:04:08.568Z,4.9
2019-02-17T03:05:17.813Z,4.9
2019-02-17T03:06:27.038Z,4.9
2019-02-17T03:07:36.277Z,4.9
2019-02-17T03:08:45.646Z,4.9
2019-02-17T03:09:54.792Z,4.9
2019-02-17T03:11:03.983Z,4.9
2019-02-17T03:12:13.214Z,4.9
2019-02-17T03:13:22.458Z,4.9
2019-02-17T03:14:31.762Z,4.9
2019-02-17T03:15:40.919Z,4.9
2019-02-17T03:16:50.151Z,4.9
2019-02-17T03:17:59.377Z,4.8
2019-02-17T03:19:08.611Z,4.8
2019-02-17T03:20:17.945Z,4.8
2019-02-17T03:21:27.170Z,4.8
2019-02-17T03:22:36.325Z,4.9
2019-02-17T03:23:45.543Z,4.9
2019-02-17T03:24:54.790Z,4.9
2019-02-17T03:26:04.011Z,4.9
2019-02-17T03:27:13.239Z,4.9
2019-02-17T03:28:22.472Z,4.9
2019-02-17T03:29:31.703Z,4.8
2019-02-17T03:30:40.937Z,4.9
2019-02-17T03:31:50.157Z,4.9
2019-02-17T03:32:59.394Z,5
2019-02-17T03:34:08.673Z,5
2019-02-17T03:35:17.848Z,4.9
2019-02-17T03:36:27.085Z,5
2019-02-17T03:37:36.341Z,5
2019-02-17T03:38:45.548Z,5
2019-02-17T03:39:54.790Z,5
2019-02-17T03:41:04.004Z,5
2019-02-17T03:42:13.282Z,5
2019-02-17T03:43:22.486Z,5.1
2019-02-17T03:44:31.707Z,5.1
2019-02-17T03:45:40.989Z,5.1
2019-02-17T03:46:50.207Z,5.2
2019-02-17T03:47:59.410Z,5.1
2019-02-17T03:49:08.682Z,5.1
2019-02-17T03:50:17.872Z,5.1
2019-02-17T03:51:27.107Z,5.1
2019-02-17T03:52:36.334Z,5.1
2019-02-17T03:53:45.561Z,5.1
2019-02-17T03:54:54.818Z,5
2019-02-17T03:56:04.041Z,5
2019-02-17T03:57:13.262Z,5
2019-02-17T03:58:22.515Z,4.9
2019-02-17T03:59:31.724Z,4.9
2019-02-17T04:00:40.984Z,5
2019-02-17T04:01:50.241Z,5
2019-02-17T04:02:59.418Z,5
2019-02-17T04:04:08.645Z,5.1
2019-02-17T04:05:17.903Z,5
2019-02-17T04:06:27.158Z,5.1
2019-02-17T04:07:36.344Z,5.1
2019-02-17T04:08:45.579Z,5.1
2019-02-17T04:09:54.815Z,5.1
2019-02-17T04:11:04.032Z,5.1
2019-02-17T04:12:13.278Z,5
2019-02-17T04:13:22.500Z,5
2019-02-17T04:14:31.719Z,4.9
2019-02-17T04:15:40.962Z,4.9
2019-02-17T04:16:50.193Z,4.9
2019-02-17T04:17:59.516Z,5
2019-02-17T04:19:08.653Z,5
2019-02-17T04:20:17.885Z,5
2019-02-17T04:21:27.115Z,5
2019-02-17T04:22:36.351Z,5
2019-02-17T04:23:45.615Z,5.1
2019-02-17T04:24:54.806Z,5.1
2019-02-17T04:26:04.051Z,5
2019-02-17T04:27:13.285Z,5
2019-02-17T04:28:22.550Z,5
2019-02-17T04:29:31.830Z,5.1
2019-02-17T04:30:40.966Z,5.1
2019-02-17T04:31:50.218Z,5.1
2019-02-17T04:32:59.424Z,5.1
2019-02-17T04:34:08.698Z,5
2019-02-17T04:35:17.933Z,5
2019-02-17T04:36:27.199Z,5
2019-02-17T04:37:36.371Z,5
2019-02-17T04:38:45.612Z,5
2019-02-17T04:39:54.921Z,5
2019-02-17T04:41:04.048Z,5
2019-02-17T04:42:13.279Z,5
2019-02-17T04:43:22.511Z,5
2019-02-17T04:44:31.736Z,5.1
2019-02-17T04:45:41.000Z,5.1
2019-02-17T04:46:50.205Z,5.1
2019-02-17T04:47:59.436Z,5.1
2019-02-17T04:49:08.667Z,5
2019-02-17T04:50:17.886Z,5.1
2019-02-17T04:51:27.124Z,5.1
2019-02-17T04:52:36.361Z,5.1
2019-02-17T04:53:45.596Z,5
2019-02-17T04:54:54.848Z,5.1
2019-02-17T04:56:04.049Z,5.1
2019-02-17T04:57:13.280Z,5.1
2019-02-17T04:58:22.504Z,5
2019-02-17T04:59:31.752Z,5
2019-02-17T05:00:41.096Z,5
2019-02-17T05:01:50.241Z,5
2019-02-17T05:02:59.476Z,5
2019-02-17T05:04:08.682Z,5
2019-02-17T05:05:18.001Z,4.9
2019-02-17T05:06:27.131Z,4.9
2019-02-17T05:07:36.386Z,4.9
2019-02-17T05:08:45.601Z,4.8
2019-02-17T05:09:54.821Z,4.9
2019-02-17T05:11:04.077Z,4.9
2019-02-17T05:12:13.296Z,4.8
2019-02-17T05:13:22.521Z,4.8
2019-02-17T05:14:31.751Z,4.9
2019-02-17T05:15:41.013Z,4.9
2019-02-17T05:16:50.254Z,4.9
2019-02-17T05:17:59.439Z,4.8
2019-02-17T05:19:08.675Z,4.8
2019-02-17T05:20:17.898Z,4.9
2019-02-17T05:21:27.121Z,4.9
2019-02-17T05:22:39.273Z,4.9
2019-02-17T05:23:45.575Z,4.9
2019-02-17T05:24:54.810Z,4.9
2019-02-17T05:26:04.140Z,4.9
2019-02-17T05:27:13.259Z,4.9
2019-02-17T05:28:22.514Z,4.8
2019-02-17T05:29:31.717Z,4.8
2019-02-17T05:30:52.043Z,4.8
2019-02-17T05:31:50.176Z,4.8
2019-02-17T05:32:59.579Z,4.9
2019-02-17T05:34:08.629Z,4.9
2019-02-17T05:35:17.856Z,4.9
2019-02-17T05:36:27.155Z,4.8
2019-02-17T05:37:36.372Z,4.8
2019-02-17T05:38:45.543Z,4.8
2019-02-17T05:39:54.855Z,4.8
2019-02-17T05:41:04.023Z,4.8
2019-02-17T05:42:13.250Z,4.8
2019-02-17T05:43:22.493Z,4.8
2019-02-17T05:44:31.666Z,4.8
2019-02-17T05:45:40.899Z,4.7
2019-02-17T05:46:50.119Z,4.7
2019-02-17T05:47:59.341Z,4.6
2019-02-17T05:49:08.570Z,4.6
2019-02-17T05:50:17.796Z,4.6
2019-02-17T05:51:27.019Z,4.6
2019-02-17T05:52:36.426Z,4.6
2019-02-17T05:53:45.465Z,4.6
2019-02-17T05:54:54.708Z,4.6
2019-02-17T05:56:03.942Z,4.7
2019-02-17T05:57:13.158Z,4.7
2019-02-17T05:58:22.445Z,4.8
2019-02-17T05:59:31.603Z,4.8
2019-02-17T06:00:40.844Z,4.8
2019-02-17T06:01:50.099Z,4.7
2019-02-17T06:02:59.267Z,4.8
2019-02-17T06:04:08.506Z,4.7
2019-02-17T06:05:17.733Z,4.7
2019-02-17T06:06:26.981Z,4.7
2019-02-17T06:07:36.316Z,4.7
2019-02-17T06:08:45.412Z,4.7
2019-02-17T06:09:54.626Z,4.6
2019-02-17T06:11:03.862Z,4.6
2019-02-17T06:12:13.078Z,4.5
2019-02-17T06:13:22.296Z,4.5
2019-02-17T06:14:31.674Z,4.5
2019-02-17T06:15:40.745Z,4.5
2019-02-17T06:16:49.976Z,4.5
2019-02-17T06:17:59.198Z,4.5
2019-02-17T06:19:08.437Z,4.5
2019-02-17T06:20:17.640Z,4.5
2019-02-17T06:21:26.854Z,4.6
2019-02-17T06:22:36.143Z,4.7
2019-02-17T06:23:45.334Z,4.7
2019-02-17T06:24:56.194Z,4.7
2019-02-17T06:26:05.329Z,4.7
2019-02-17T06:27:14.584Z,4.6
2019-02-17T06:28:23.803Z,4.6
2019-02-17T06:29:32.996Z,4.7
2019-02-17T06:30:42.215Z,4.7
2019-02-17T06:31:51.461Z,4.7
2019-02-17T06:33:00.677Z,4.7
2019-02-17T06:34:09.886Z,4.6
2019-02-17T06:35:19.202Z,4.6
2019-02-17T06:36:28.344Z,4.6
2019-02-17T06:37:37.544Z,4.7
2019-02-17T06:38:46.792Z,4.8
2019-02-17T06:39:55.994Z,4.8
2019-02-17T06:41:05.215Z,4.8
2019-02-17T06:42:14.430Z,4.9
2019-02-17T06:43:23.663Z,4.9
2019-02-17T06:44:32.885Z,5
2019-02-17T06:45:42.112Z,4.9
2019-02-17T06:46:51.330Z,5
2019-02-17T06:48:00.585Z,5
2019-02-17T06:49:09.783Z,5.1
2019-02-17T06:50:19.036Z,5.1
2019-02-17T06:51:28.243Z,5.1
2019-02-17T06:52:37.472Z,5.1
2019-02-17T06:53:46.719Z,5.1
2019-02-17T06:54:55.956Z,5.1
2019-02-17T06:56:05.152Z,5.2
2019-02-17T06:57:14.396Z,5.2
2019-02-17T06:58:23.670Z,5.2
2019-02-17T06:59:32.860Z,5.2
2019-02-17T07:00:42.121Z,5.2
2019-02-17T07:01:51.332Z,5.2
2019-02-17T07:03:00.589Z,5.2
2019-02-17T07:04:09.830Z,5.2
2019-02-17T07:05:19.158Z,5.2
2019-02-17T07:06:28.387Z,5.3
2019-02-17T07:07:37.582Z,5.3
2019-02-17T07:08:46.775Z,5.2
2019-02-17T07:09:56.005Z,5.3
2019-02-17T07:11:05.254Z,5.3
2019-02-17T07:12:14.505Z,5.3
2019-02-17T07:13:23.738Z,5.2
2019-02-17T07:14:32.983Z,5.3
2019-02-17T07:15:42.231Z,5.3
2019-02-17T07:16:51.475Z,5.2
2019-02-17T07:18:00.783Z,5.3
2019-02-17T07:19:09.972Z,5.4
2019-02-17T07:20:19.218Z,5.4
2019-02-17T07:21:28.481Z,5.5
2019-02-17T07:22:37.758Z,5.5
2019-02-17T07:23:47.010Z,5.5
2019-02-17T07:24:56.216Z,5.5
2019-02-17T07:26:05.475Z,5.5
2019-02-17T07:27:14.772Z,5.5
2019-02-17T07:28:23.977Z,5.7
2019-02-17T07:29:33.285Z,5.6
2019-02-17T07:30:42.585Z,5.6
2019-02-17T07:31:51.778Z,5.5
2019-02-17T07:33:01.024Z,5.7
2019-02-17T07:34:10.272Z,5.6
2019-02-17T07:35:19.570Z,5.7
2019-02-17T07:36:28.789Z,5.8
2019-02-17T07:37:38.042Z,6.1
2019-02-17T07:38:47.398Z,6.4
2019-02-17T07:39:56.573Z,6.5
2019-02-17T07:41:05.835Z,6.4
2019-02-17T07:42:15.132Z,6.4
2019-02-17T07:43:24.375Z,6.4
2019-02-17T07:44:33.659Z,6.5
2019-02-17T07:45:42.901Z,6.5
2019-02-17T07:46:52.174Z,6.5
2019-02-17T07:48:01.475Z,6.5
2019-02-17T07:49:10.721Z,6.5
2019-02-17T07:50:20.061Z,6.5
2019-02-17T07:51:29.262Z,6.3
2019-02-17T07:52:38.560Z,6.5
2019-02-17T07:53:47.824Z,6.6
2019-02-17T07:54:57.081Z,6.9
2019-02-17T07:56:06.367Z,7.3
2019-02-17T07:57:15.657Z,7.6
2019-02-17T07:58:24.943Z,7.6
2019-02-17T07:59:34.259Z,7.5
2019-02-17T08:00:43.492Z,7.3
2019-02-17T08:01:52.785Z,7.3
2019-02-17T08:03:02.065Z,7.1
2019-02-17T08:04:11.363Z,7
2019-02-17T08:05:20.668Z,7.3
2019-02-17T08:06:29.950Z,7.1
2019-02-17T08:07:39.257Z,6.9
2019-02-17T08:08:48.564Z,7.2
2019-02-17T08:09:57.886Z,7.3
2019-02-17T08:11:07.132Z,7.1
2019-02-17T08:12:16.483Z,7.1
2019-02-17T08:13:25.757Z,7
2019-02-17T08:14:35.074Z,6.9
2019-02-17T08:15:44.358Z,7.2
2019-02-17T08:16:53.660Z,7.3
2019-02-17T08:18:02.970Z,7.1
2019-02-17T08:19:12.262Z,7
2019-02-17T08:20:21.574Z,7.1
2019-02-17T08:21:30.927Z,7.2
2019-02-17T08:22:40.265Z,7.4
2019-02-17T08:23:49.533Z,7.7
2019-02-17T08:24:58.821Z,8.7
2019-02-17T08:26:08.169Z,8.8
2019-02-17T08:27:17.482Z,8.4
2019-02-17T08:28:26.840Z,8.7
2019-02-17T08:29:36.096Z,8.8
2019-02-17T08:30:45.413Z,9
2019-02-17T08:31:55.619Z,9.2
2019-02-17T08:33:04.068Z,8.8
2019-02-17T08:34:13.500Z,9.2
2019-02-17T08:35:22.756Z,9.4
2019-02-17T08:36:32.127Z,9.9
2019-02-17T08:37:41.426Z,9.8
2019-02-17T08:38:50.767Z,8.9
2019-02-17T08:40:00.232Z,8.5
2019-02-17T08:41:09.455Z,8.2
2019-02-17T08:42:18.796Z,8.2
2019-02-17T08:43:28.318Z,8.8
2019-02-17T08:44:37.565Z,9.4
2019-02-17T08:45:47.011Z,9.1
2019-02-17T08:46:56.210Z,8.9
2019-02-17T08:48:05.587Z,8.7
2019-02-17T08:49:14.973Z,8.6
2019-02-17T08:50:24.322Z,8.5
2019-02-17T08:51:33.625Z,9
2019-02-17T08:52:43.063Z,9.6
2019-02-17T08:53:52.443Z,9.8
2019-02-17T08:55:01.702Z,9.9
2019-02-17T08:56:11.187Z,10.5
2019-02-17T08:57:20.442Z,10.6
2019-02-17T08:58:30.012Z,11.1
2019-02-17T08:59:39.175Z,12.1
2019-02-17T09:00:48.532Z,12.5
2019-02-17T09:02:05.515Z,11.6
2019-02-17T09:03:07.286Z,11.6
2019-02-17T09:04:16.680Z,11.8
2019-02-17T09:05:26.096Z,11.8
2019-02-17T09:06:35.452Z,11.6
2019-02-17T09:07:44.884Z,11.7
2019-02-17T09:08:54.219Z,12.2
2019-02-17T09:10:03.761Z,12.4
2019-02-17T09:11:13.033Z,12.5
2019-02-17T09:12:22.456Z,12.6
2019-02-17T09:13:31.837Z,12
2019-02-17T09:14:41.272Z,11.8
2019-02-17T09:15:50.673Z,12.6
2019-02-17T09:17:00.070Z,12.4
2019-02-17T09:18:09.517Z,12
2019-02-17T09:19:19.068Z,11.7
2019-02-17T09:20:28.335Z,11.2
2019-02-17T09:21:37.816Z,10.9
2019-02-17T09:22:47.171Z,11
2019-02-17T09:23:56.605Z,11.1
2019-02-17T09:25:06.018Z,11.9
2019-02-17T09:26:15.449Z,12.5
2019-02-17T09:27:24.903Z,12.9
2019-02-17T09:28:34.286Z,13.2
2019-02-17T09:29:43.721Z,13.2
2019-02-17T09:30:53.187Z,13.3
2019-02-17T09:32:02.606Z,13.2
2019-02-17T09:33:12.029Z,13.6
2019-02-17T09:34:21.464Z,14
2019-02-17T09:35:30.910Z,12.9
2019-02-17T09:36:40.362Z,12.9
2019-02-17T09:37:49.810Z,13.2
2019-02-17T09:38:59.263Z,13.7
2019-02-17T09:40:08.719Z,13.7
2019-02-17T09:41:18.279Z,12.4
2019-02-17T09:42:27.621Z,12
2019-02-17T09:43:37.075Z,12
2019-02-17T09:44:46.556Z,12.6
2019-02-17T09:45:56.001Z,12.6
2019-02-17T09:47:05.451Z,13
2019-02-17T09:48:14.992Z,13.7
2019-02-17T09:49:24.417Z,13.8
2019-02-17T09:50:33.843Z,12.6
2019-02-17T09:51:43.313Z,13.1
2019-02-17T09:52:52.778Z,13.5
2019-02-17T09:54:02.286Z,13.6
2019-02-17T09:55:11.719Z,12.9
2019-02-17T09:56:21.215Z,13.4
2019-02-17T09:57:30.718Z,13.5
2019-02-17T09:58:40.256Z,12.3
2019-02-17T09:59:49.598Z,12.4
2019-02-17T10:00:59.110Z,12.6
2019-02-17T10:02:08.533Z,12.7
2019-02-17T10:03:18.048Z,12.9
2019-02-17T10:04:27.508Z,13
2019-02-17T10:05:36.940Z,13.6
2019-02-17T10:06:46.432Z,13.9
2019-02-17T10:07:55.885Z,13.8
2019-02-17T10:09:05.469Z,13.5
2019-02-17T10:10:14.851Z,13.8
2019-02-17T10:11:24.330Z,14.3
2019-02-17T10:12:33.813Z,13.9
2019-02-17T10:13:43.301Z,14.6
2019-02-17T10:14:52.815Z,14.7
2019-02-17T10:16:02.303Z,14.9
2019-02-17T10:17:11.917Z,14.7
2019-02-17T10:18:21.288Z,14
2019-02-17T10:19:30.780Z,13.9
2019-02-17T10:20:40.271Z,13.6
2019-02-17T10:21:49.771Z,13.3
2019-02-17T10:22:59.274Z,14
2019-02-17T10:24:08.768Z,14.2
2019-02-17T10:25:18.357Z,13.7
2019-02-17T10:26:27.811Z,13.2
2019-02-17T10:27:37.274Z,13.4
2019-02-17T10:28:46.844Z,13
2019-02-17T10:29:56.291Z,13.5
2019-02-17T10:31:05.798Z,13.2
2019-02-17T10:32:15.335Z,12.6
2019-02-17T10:33:24.856Z,12.8
2019-02-17T10:34:34.337Z,13.4
2019-02-17T10:35:43.822Z,13.2
2019-02-17T10:36:53.314Z,12.9
2019-02-17T10:38:02.903Z,13.1
2019-02-17T10:39:12.317Z,13.4
2019-02-17T10:40:21.820Z,13.5
2019-02-17T10:41:31.467Z,14.9
2019-02-17T10:42:41.000Z,14.6
2019-02-17T10:43:50.363Z,13.8
2019-02-17T10:44:59.856Z,13.5
2019-02-17T10:46:09.355Z,13.5
2019-02-17T10:47:18.879Z,13.6
2019-02-17T10:48:28.376Z,14.4
2019-02-17T10:49:37.903Z,14.2
2019-02-17T10:50:47.500Z,13.9
2019-02-17T10:51:57.002Z,13.3
2019-02-17T10:53:06.434Z,13.3
2019-02-17T10:54:16.138Z,14.4
2019-02-17T10:55:25.482Z,14.4
2019-02-17T10:56:34.962Z,14.1
2019-02-17T10:57:44.520Z,15
2019-02-17T10:58:54.005Z,14.7
2019-02-17T11:00:03.576Z,13.4
2019-02-17T11:01:13.121Z,13.1
2019-02-17T11:02:22.557Z,13.7
2019-02-17T11:03:32.072Z,13.4
2019-02-17T11:04:41.799Z,13.4
2019-02-17T11:05:51.106Z,13.3
2019-02-17T11:07:00.647Z,12.7
2019-02-17T11:08:10.131Z,12.7
2019-02-17T11:09:19.805Z,13.3
2019-02-17T11:10:29.154Z,13.3
2019-02-17T11:11:38.664Z,13
2019-02-17T11:12:48.177Z,13.8
2019-02-17T11:13:57.697Z,14.3
2019-02-17T11:15:07.273Z,14.1
2019-02-17T11:16:16.736Z,13.9
2019-02-17T11:17:26.466Z,13.6
2019-02-17T11:18:35.729Z,13.6
2019-02-17T11:19:45.308Z,13.6
2019-02-17T11:20:54.750Z,14.5
2019-02-17T11:22:04.312Z,14.3
2019-02-17T11:23:13.807Z,14.2
2019-02-17T11:24:23.299Z,14.4
2019-02-17T11:25:32.808Z,14.2
2019-02-17T11:26:42.350Z,14.3
2019-02-17T11:27:51.843Z,14.3
2019-02-17T11:29:01.450Z,14.7
2019-02-17T11:30:11.004Z,14.3
2019-02-17T11:31:20.404Z,14.1
2019-02-17T11:32:32.174Z,14
2019-02-17T11:33:39.431Z,14.4
2019-02-17T11:34:48.952Z,14.7
2019-02-17T11:35:58.501Z,15
2019-02-17T11:37:08.011Z,14.5
2019-02-17T11:38:17.537Z,14.1
2019-02-17T11:39:27.136Z,13.6
2019-02-17T11:40:36.740Z,13.8
2019-02-17T11:41:46.203Z,14.5
2019-02-17T11:42:55.651Z,14.8
2019-02-17T11:44:05.191Z,15.2
2019-02-17T11:45:14.783Z,15.4
2019-02-17T11:46:24.277Z,16
2019-02-17T11:47:33.782Z,15.5
2019-02-17T11:48:43.305Z,15.6
2019-02-17T11:49:52.943Z,14.9
2019-02-17T11:51:02.408Z,14.9
2019-02-17T11:52:12.025Z,15.9
2019-02-17T11:53:21.458Z,16.2
2019-02-17T11:54:31.025Z,15.5
2019-02-17T11:55:40.570Z,14.9
2019-02-17T11:56:50.134Z,15.8
2019-02-17T11:57:59.658Z,16.8
2019-02-17T11:59:09.209Z,16.9
2019-02-17T12:00:18.781Z,17.4
2019-02-17T12:01:28.365Z,17.2
2019-02-17T12:02:37.897Z,16.1
2019-02-17T12:03:47.559Z,16.9
2019-02-17T12:04:57.027Z,17.2
2019-02-17T12:06:06.606Z,16.5
2019-02-17T12:07:16.224Z,16
2019-02-17T12:08:25.756Z,15.7
2019-02-17T12:09:35.341Z,16.7
2019-02-17T12:10:44.949Z,17.1
2019-02-17T12:11:54.489Z,16.7
2019-02-17T12:13:04.085Z,16
2019-02-17T12:14:13.773Z,16.4
2019-02-17T12:15:23.238Z,16
2019-02-17T12:16:36.848Z,16.7
2019-02-17T12:17:42.402Z,17.8
2019-02-17T12:18:51.989Z,17.4
2019-02-17T12:20:01.627Z,16.6
2019-02-17T12:21:11.214Z,16.4
2019-02-17T12:22:20.744Z,16.1
2019-02-17T12:23:30.353Z,16.6
2019-02-17T12:24:39.970Z,16.2
2019-02-17T12:25:49.501Z,16.1
2019-02-17T12:26:59.094Z,16.1
2019-02-17T12:28:08.682Z,16.5
2019-02-17T12:29:18.294Z,17.7
2019-02-17T12:30:27.869Z,18.7
2019-02-17T12:31:37.497Z,18.8
2019-02-17T12:32:47.070Z,18.8
2019-02-17T12:33:56.670Z,17.2
2019-02-17T12:35:06.281Z,16.6
2019-02-17T12:36:15.884Z,15.6
2019-02-17T12:37:25.492Z,15.4
2019-02-17T12:38:35.102Z,15.7
2019-02-17T12:39:44.698Z,15.9
2019-02-17T12:40:54.302Z,15.5
2019-02-17T12:42:03.910Z,16
2019-02-17T12:43:13.555Z,16.2
2019-02-17T12:44:23.136Z,15.7
2019-02-17T12:45:32.736Z,15.9
2019-02-17T12:46:42.319Z,16.6
2019-02-17T12:47:57.703Z,16.6
2019-02-17T12:49:01.527Z,17
2019-02-17T12:50:11.247Z,17
2019-02-17T12:51:20.728Z,17.4
2019-02-17T12:52:30.350Z,18.7
2019-02-17T12:53:39.962Z,18.3
2019-02-17T12:54:49.555Z,18
2019-02-17T12:55:59.179Z,17.5
2019-02-17T12:57:08.782Z,16.3
2019-02-17T12:58:18.883Z,16.5
2019-02-17T12:59:28.006Z,16.6
2019-02-17T13:00:37.636Z,16.9
2019-02-17T13:01:47.349Z,16.2
2019-02-17T13:02:56.858Z,16.7
2019-02-17T13:04:06.598Z,16.8
2019-02-17T13:05:16.086Z,17.6
2019-02-17T13:06:26.614Z,18.6
2019-02-17T13:07:35.317Z,17.5
2019-02-17T13:08:44.947Z,15.8
2019-02-17T13:09:54.565Z,15.9
2019-02-17T13:11:04.241Z,15.6
2019-02-17T13:12:13.812Z,15.9
2019-02-17T13:13:23.451Z,16
2019-02-17T13:14:33.081Z,17.3
2019-02-17T13:15:42.630Z,16.7
2019-02-17T13:16:52.246Z,16.3
2019-02-17T13:18:01.907Z,16.5
2019-02-17T13:19:11.465Z,16.1
2019-02-17T13:20:21.082Z,16
2019-02-17T13:21:30.723Z,16.3
2019-02-17T13:22:40.283Z,15.9
2019-02-17T13:23:49.916Z,15.8
2019-02-17T13:24:59.509Z,16.2
2019-02-17T13:26:09.091Z,15.5
2019-02-17T13:27:18.706Z,16
2019-02-17T13:28:28.290Z,15.4
2019-02-17T13:29:39.728Z,15.2
2019-02-17T13:30:47.512Z,14.7
2019-02-17T13:31:57.057Z,14.5
2019-02-17T13:33:06.635Z,15.3
2019-02-17T13:34:16.267Z,15.6
2019-02-17T13:35:25.790Z,15.1
2019-02-17T13:36:35.364Z,15
2019-02-17T13:37:44.993Z,15
2019-02-17T13:38:54.518Z,15.1
2019-02-17T13:40:04.081Z,14.5
2019-02-17T13:41:13.716Z,14.5
2019-02-17T13:42:23.199Z,15
2019-02-17T13:43:32.741Z,15.6
2019-02-17T13:44:42.341Z,15.8
2019-02-17T13:45:51.847Z,15
2019-02-17T13:47:01.473Z,14.8
2019-02-17T13:48:10.973Z,14.6
2019-02-17T13:49:20.499Z,15
2019-02-17T13:50:30.074Z,15
2019-02-17T13:51:39.598Z,15.2
2019-02-17T13:52:49.159Z,15.9
2019-02-17T13:53:58.889Z,15.1
2019-02-17T13:55:08.219Z,14.9
2019-02-17T13:56:17.780Z,15.2
2019-02-17T13:57:27.385Z,15.7
2019-02-17T13:58:36.883Z,15.6
2019-02-17T13:59:46.412Z,15.5
2019-02-17T14:00:55.948Z,15.7
2019-02-17T14:02:05.493Z,15.2
2019-02-17T14:03:15.055Z,14.8
2019-02-17T14:04:24.581Z,15
2019-02-17T14:05:34.127Z,14.5
2019-02-17T14:06:43.683Z,14.5
2019-02-17T14:07:53.218Z,14.6
2019-02-17T14:09:02.751Z,14.5
2019-02-17T14:10:12.322Z,14.9
2019-02-17T14:11:21.810Z,15.5
2019-02-17T14:12:31.346Z,15.1
2019-02-17T14:13:40.895Z,14.8
2019-02-17T14:14:50.524Z,15.2
2019-02-17T14:16:00.006Z,14.8
2019-02-17T14:17:09.488Z,14.5
2019-02-17T14:18:18.991Z,14.9
2019-02-17T14:19:28.530Z,14.9
2019-02-17T14:20:38.094Z,14.7
2019-02-17T14:21:47.614Z,14.7
2019-02-17T14:22:57.110Z,14.8
2019-02-17T14:24:06.674Z,15.1
2019-02-17T14:25:16.402Z,14.7
2019-02-17T14:26:25.801Z,14.6
2019-02-17T14:27:35.239Z,14.8
2019-02-17T14:28:44.789Z,14.7
2019-02-17T14:29:54.234Z,14.5
2019-02-17T14:31:03.776Z,15
2019-02-17T14:32:13.274Z,14.8
2019-02-17T14:33:22.782Z,14.7
2019-02-17T14:34:32.336Z,14.7
2019-02-17T14:35:41.816Z,14.8
2019-02-17T14:36:51.329Z,14.3
2019-02-17T14:38:00.855Z,14.3
2019-02-17T14:39:10.358Z,14.8
2019-02-17T14:40:19.876Z,14.7
2019-02-17T14:41:29.416Z,14.6
2019-02-17T14:42:38.928Z,14.5
2019-02-17T14:43:49.672Z,14.4
2019-02-17T14:44:59.155Z,14.3
2019-02-17T14:46:08.662Z,14.2
2019-02-17T14:47:18.304Z,14.2
2019-02-17T14:48:27.677Z,13.9
2019-02-17T14:49:37.187Z,14
2019-02-17T14:50:46.683Z,13.9
2019-02-17T14:51:56.214Z,14
2019-02-17T14:53:05.686Z,13.8
2019-02-17T14:54:15.212Z,14.1
2019-02-17T14:55:24.690Z,14.3
2019-02-17T14:56:34.197Z,14.3
2019-02-17T14:57:43.678Z,14.7
2019-02-17T14:58:53.176Z,14.4
2019-02-17T15:00:02.707Z,14
2019-02-17T15:01:12.231Z,14
2019-02-17T15:02:21.651Z,14
2019-02-17T15:03:31.205Z,13.7
2019-02-17T15:04:40.650Z,14
2019-02-17T15:05:50.119Z,13.8
2019-02-17T15:06:59.625Z,13.7
2019-02-17T15:08:09.097Z,13.6
2019-02-17T15:09:18.591Z,13.5
2019-02-17T15:10:28.090Z,13.6
2019-02-17T15:11:37.561Z,13.5
2019-02-17T15:12:47.103Z,13.6
2019-02-17T15:13:56.515Z,13.6
2019-02-17T15:15:06.176Z,13.5
2019-02-17T15:16:15.527Z,13.4
2019-02-17T15:17:24.983Z,13.4
2019-02-17T15:18:34.438Z,13.4
2019-02-17T15:19:43.913Z,13.4
2019-02-17T15:20:53.382Z,13.5
2019-02-17T15:22:02.865Z,13.6
2019-02-17T15:23:12.421Z,13.6
2019-02-17T15:24:21.799Z,13.7
2019-02-17T15:25:31.419Z,13.7
2019-02-17T15:26:40.743Z,13.5
2019-02-17T15:27:50.235Z,13.5
2019-02-17T15:28:59.678Z,13.5
2019-02-17T15:30:09.167Z,13.5
2019-02-17T15:31:18.660Z,13.5
2019-02-17T15:32:28.082Z,13.5
2019-02-17T15:33:37.553Z,13.5
2019-02-17T15:34:47.026Z,13.4
2019-02-17T15:35:56.520Z,13.4
2019-02-17T15:37:05.995Z,13.4
2019-02-17T15:38:15.430Z,13.5
2019-02-17T15:39:24.900Z,13.5
2019-02-17T15:40:34.344Z,13.4
2019-02-17T15:41:43.813Z,13.4
2019-02-17T15:42:53.268Z,13.2
2019-02-17T15:44:02.808Z,13.3
2019-02-17T15:45:12.204Z,13.2
2019-02-17T15:46:21.763Z,13.2
2019-02-17T15:47:31.211Z,13.2
2019-02-17T15:48:40.738Z,13.3
2019-02-17T15:49:50.041Z,13.2